Time;durP1;ratioP1;P1;durP2;ratioP2;P2;SDS_P1;SDS_P2;PMS_P1;PMS_P2;Temp;Humidity;BMP_temperature;BMP_pressure;BME280_temperature;BME280_humidity;BME280_pressure;Samples;Min_cycle;Max_cycle;Signal;HPM_P1;HPM_P2
2021/08/07 00:00:15;;;;;;;8.83;4.07;;;;;;;13.36;71.51;98129.34;125694;1097;102943;-74
2021/08/07 00:03:04;;;;;;;7.60;3.70;;;;;;;13.33;71.43;98135.81;125731;1096;104393;-77
2021/08/07 00:05:35;;;;;;;11.00;3.83;;;;;;;13.32;71.60;98134.14;125744;1095;102945;-74
2021/08/07 00:08:04;;;;;;;10.43;3.70;;;;;;;13.31;71.43;98131.63;125779;1095;103009;-74
2021/08/07 00:10:36;;;;;;;7.47;3.63;;;;;;;13.30;71.45;98129.95;125759;1096;103013;-74
2021/08/07 00:13:05;;;;;;;7.90;3.60;;;;;;;13.29;71.54;98128.27;125808;1095;102942;-75
2021/08/07 00:15:36;;;;;;;7.73;3.70;;;;;;;13.26;71.75;98137.41;125801;1096;103403;-75
2021/08/07 00:18:09;;;;;;;9.70;3.77;;;;;;;13.27;71.67;98138.27;125711;1096;102914;-75
2021/08/07 00:20:37;;;;;;;11.83;3.73;;;;;;;13.25;71.45;98128.58;125714;1096;102939;-76
2021/08/07 00:23:05;;;;;;;7.80;3.77;;;;;;;13.26;71.59;98140.08;125716;1095;102917;-74
2021/08/07 00:25:34;;;;;;;6.73;3.43;;;;;;;13.26;71.99;98129.40;125715;1095;102984;-75
2021/08/07 00:28:06;;;;;;;10.23;4.20;;;;;;;13.29;71.62;98142.45;125708;1096;102907;-75
2021/08/07 00:30:34;;;;;;;7.90;3.93;;;;;;;13.32;71.80;98142.15;125642;1097;103035;-75
2021/08/07 00:33:06;;;;;;;10.60;3.67;;;;;;;13.34;71.54;98155.37;125660;1095;102978;-74
2021/08/07 00:35:34;;;;;;;10.33;4.10;;;;;;;13.34;71.63;98153.52;125668;1095;102916;-75
2021/08/07 00:38:03;;;;;;;10.77;4.10;;;;;;;13.34;71.69;98156.19;125760;1096;102916;-74
2021/08/07 00:40:35;;;;;;;6.77;3.80;;;;;;;13.36;71.58;98156.06;125766;1096;103019;-75
2021/08/07 00:43:04;;;;;;;6.47;3.70;;;;;;;13.37;71.78;98147.88;125647;1096;103011;-75
2021/08/07 00:45:41;;;;;;;7.87;3.53;;;;;;;13.39;71.64;98150.41;125614;1095;103091;-75
2021/08/07 00:48:10;;;;;;;10.40;3.73;;;;;;;13.40;71.57;98147.58;125651;1095;103065;-75
2021/08/07 00:50:38;;;;;;;9.37;3.53;;;;;;;13.42;71.89;98149.28;125646;1095;102914;-75
2021/08/07 00:53:10;;;;;;;10.63;4.50;;;;;;;13.43;71.72;98148.30;125655;1095;103025;-76
2021/08/07 00:55:43;;;;;;;7.20;3.87;;;;;;;13.43;71.76;98154.49;125641;1097;103067;-78
2021/08/07 00:58:12;;;;;;;6.95;3.68;;;;;;;13.44;71.48;98150.83;125667;1096;102919;-74
2021/08/07 01:00:40;;;;;;;8.10;3.80;;;;;;;13.43;71.61;98151.82;125676;1095;103348;-76
2021/08/07 01:03:29;;;;;;;13.87;4.57;;;;;;;13.44;71.81;98156.17;125654;1096;103140;-74
2021/08/07 01:06:16;;;;;;;8.97;4.17;;;;;;;13.46;71.73;98158.68;125695;1097;103004;-75
2021/08/07 01:09:12;;;;;;;7.63;3.83;;;;;;;13.47;71.87;98155.84;126854;1096;103024;-75
2021/08/07 01:12:07;;;;;;;11.00;3.63;;;;;;;13.47;71.78;98161.19;125705;1097;102926;-74
2021/08/07 01:14:45;;;;;;;9.33;3.80;;;;;;;13.47;71.90;98155.02;125617;1096;103013;-75
2021/08/07 01:17:27;;;;;;;8.27;3.60;;;;;;;13.47;71.66;98161.19;125697;1096;102978;-74
2021/08/07 01:20:14;;;;;;;10.70;4.27;;;;;;;13.48;71.88;98178.89;125682;1096;103200;-73
2021/08/07 01:22:45;;;;;;;8.83;3.90;;;;;;;13.50;71.84;98179.58;125651;1094;102937;-75
2021/08/07 01:25:22;;;;;;;8.20;4.05;;;;;;;13.52;71.85;98179.45;125669;1096;102916;-75
2021/08/07 01:27:55;;;;;;;12.33;4.00;;;;;;;13.53;71.73;98173.94;125672;1096;103005;-79
2021/08/07 01:30:27;;;;;;;8.60;3.90;;;;;;;13.54;71.50;98178.28;125723;1096;102952;-75
2021/08/07 01:32:55;;;;;;;8.95;3.40;;;;;;;13.53;71.75;98192.64;125691;1095;102920;-75
2021/08/07 01:35:24;;;;;;;8.40;3.80;;;;;;;13.53;71.75;98187.30;125690;1095;103017;-76
2021/08/07 01:37:56;;;;;;;9.80;3.90;;;;;;;13.52;72.01;98180.27;125769;1095;103506;-75
2021/08/07 01:40:25;;;;;;;13.33;4.10;;;;;;;13.49;71.80;98190.44;125690;1095;102919;-75
2021/08/07 01:42:53;;;;;;;7.67;4.00;;;;;;;13.45;71.67;98187.20;125689;1096;102911;-76
2021/08/07 01:45:21;;;;;;;9.50;3.73;;;;;;;13.40;71.81;98187.64;125705;1095;103055;-76
2021/08/07 01:47:58;;;;;;;12.03;4.37;;;;;;;13.37;71.65;98187.12;125661;1096;102919;-74
2021/08/07 01:50:47;;;;;;;16.17;4.23;;;;;;;13.33;71.83;98183.89;125683;1095;102923;-75
2021/08/07 01:53:29;;;;;;;13.57;3.93;;;;;;;13.24;71.61;98190.98;125651;1096;103012;-75
2021/08/07 01:56:06;;;;;;;7.80;3.63;;;;;;;13.02;71.58;98186.90;125690;1096;103534;-74
2021/08/07 01:58:45;;;;;;;15.77;4.17;;;;;;;12.92;71.79;98189.63;125675;1096;102937;-74
2021/08/07 02:01:25;;;;;;;10.87;3.50;;;;;;;12.91;71.97;98198.63;125575;1096;102932;-74
2021/08/07 02:03:58;;;;;;;9.40;3.57;;;;;;;12.90;71.83;98194.27;125679;1096;102936;-74
2021/08/07 02:06:31;;;;;;;;;;;;;;;12.78;71.82;98198.11;125677;1096;103099;-76
2021/08/07 02:09:04;;;;;;;7.80;3.77;;;;;;;12.62;71.55;98194.27;125683;1095;103052;-75
2021/08/07 02:11:37;;;;;;;11.50;4.17;;;;;;;12.53;72.04;98196.94;125688;1096;102945;-76
2021/08/07 02:14:10;;;;;;;7.87;3.37;;;;;;;12.48;72.08;98197.39;125638;1095;102978;-75
2021/08/07 02:16:43;;;;;;;9.63;3.83;;;;;;;12.44;71.73;98204.82;125665;1096;103422;-75
2021/08/07 02:19:16;;;;;;;6.78;3.73;;;;;;;12.36;72.08;98194.89;125679;1097;102937;-75
2021/08/07 02:21:49;;;;;;;8.93;3.88;;;;;;;12.34;72.15;98199.52;125715;1096;103044;-75
2021/08/07 02:24:17;;;;;;;8.97;3.90;;;;;;;12.35;72.29;98203.05;125683;1096;102919;-75
2021/08/07 02:26:50;;;;;;;8.40;3.73;;;;;;;12.35;72.14;98200.38;125649;1096;103113;-74
2021/08/07 02:29:19;;;;;;;9.68;4.33;;;;;;;12.30;72.32;98207.97;125666;1095;103025;-74
2021/08/07 02:31:52;;;;;;;8.63;3.83;;;;;;;12.28;72.16;98209.94;125664;1096;103068;-74
2021/08/07 02:34:26;;;;;;;11.43;3.88;;;;;;;12.29;72.21;98211.62;125725;1097;102937;-75
2021/08/07 02:36:59;;;;;;;6.97;3.80;;;;;;;12.33;72.32;98219.17;125675;1096;103004;-76
2021/08/07 02:39:28;;;;;;;8.45;3.90;;;;;;;12.34;72.40;98209.36;125680;1097;102942;-74
2021/08/07 02:42:01;;;;;;;10.40;4.70;;;;;;;12.32;72.07;98212.16;125687;1096;103158;-73
2021/08/07 02:44:32;;;;;;;10.23;4.33;;;;;;;12.29;72.14;98206.28;125688;1097;103450;-74
2021/08/07 02:47:05;;;;;;;10.20;4.33;;;;;;;12.24;72.32;98209.36;125695;1096;103071;-73
2021/08/07 02:49:33;;;;;;;13.03;4.50;;;;;;;12.25;72.55;98207.55;125660;1096;103164;-75
2021/08/07 02:52:06;;;;;;;8.37;4.20;;;;;;;12.24;72.34;98212.03;126170;1095;103055;-72
2021/08/07 02:54:36;;;;;;;9.97;4.23;;;;;;;12.20;72.53;98215.99;125672;1097;103094;-73
2021/08/07 02:57:06;;;;;;;11.17;4.00;;;;;;;12.23;72.68;98214.85;125672;1096;102953;-73
2021/08/07 02:59:34;;;;;;;10.73;4.23;;;;;;;12.27;72.47;98222.41;125678;1096;102939;-73
2021/08/07 03:02:02;;;;;;;14.60;4.40;;;;;;;12.29;72.52;98217.78;125654;1096;103029;-73
2021/08/07 03:04:35;;;;;;;10.97;4.37;;;;;;;12.28;72.61;98220.60;125667;1097;103041;-74
2021/08/07 03:07:03;;;;;;;9.03;3.97;;;;;;;12.27;72.52;98224.25;125692;1096;103425;-73
2021/08/07 03:09:31;;;;;;;9.67;4.40;;;;;;;12.24;72.46;98228.03;125698;1097;102913;-74
2021/08/07 03:12:00;;;;;;;13.27;4.37;;;;;;;12.22;72.51;98227.36;125731;1094;103068;-74
2021/08/07 03:14:29;;;;;;;8.47;4.23;;;;;;;12.12;72.42;98235.34;125693;1096;103074;-75
2021/08/07 03:17:00;;;;;;;11.63;4.43;;;;;;;12.00;72.38;98236.50;125635;1096;102959;-76
2021/08/07 03:19:29;;;;;;;12.03;4.43;;;;;;;11.89;72.65;98234.77;125619;1096;102917;-74
2021/08/07 03:21:58;;;;;;;8.40;3.90;;;;;;;11.87;72.69;98236.73;125649;1094;103041;-74
2021/08/07 03:24:26;;;;;;;9.80;4.33;;;;;;;11.84;72.75;98232.53;125729;1095;103036;-75
2021/08/07 03:26:58;;;;;;;12.53;4.57;;;;;;;11.83;72.82;98237.98;125724;1096;103035;-74
2021/08/07 03:29:27;;;;;;;8.75;3.90;;;;;;;11.86;72.79;98237.71;125629;1096;103025;-73
2021/08/07 03:31:55;;;;;;;9.95;4.20;;;;;;;11.86;72.88;98240.38;125728;1095;103009;-75
2021/08/07 03:34:24;;;;;;;13.10;4.40;;;;;;;11.85;72.63;98236.02;125690;1096;102999;-74
2021/08/07 03:36:52;;;;;;;9.67;4.50;;;;;;;11.81;72.94;98248.80;125740;1096;103007;-74
2021/08/07 03:39:22;;;;;;;10.10;4.53;;;;;;;11.78;72.90;98245.59;125729;1095;102946;-74
2021/08/07 03:41:52;;;;;;;9.53;4.37;;;;;;;11.81;72.84;98251.47;125630;1096;103011;-74
2021/08/07 03:44:24;;;;;;;9.43;4.40;;;;;;;11.83;72.82;98245.98;125686;1096;102917;-75
2021/08/07 03:46:56;;;;;;;9.70;4.40;;;;;;;11.84;73.08;98251.19;125637;1096;102996;-74
2021/08/07 03:49:25;;;;;;;10.73;4.40;;;;;;;11.83;73.02;98241.51;125696;1095;102929;-75
2021/08/07 03:51:53;;;;;;;11.27;4.30;;;;;;;11.84;72.90;98240.53;125741;1095;102919;-75
2021/08/07 03:54:22;;;;;;;10.83;4.37;;;;;;;11.80;73.04;98247.12;125705;1095;102916;-74
2021/08/07 03:56:50;;;;;;;10.57;4.23;;;;;;;11.81;73.04;98247.98;125719;1095;103036;-74
2021/08/07 03:59:19;;;;;;;11.60;4.00;;;;;;;11.81;73.04;98248.80;125735;1097;103036;-74
2021/08/07 04:01:47;;;;;;;11.70;4.90;;;;;;;11.87;73.28;98252.72;125711;1096;103091;-73
2021/08/07 04:04:19;;;;;;;11.93;4.50;;;;;;;11.93;73.13;98254.00;125630;1095;103026;-73
2021/08/07 04:06:48;;;;;;;10.75;4.30;;;;;;;11.97;73.26;98256.23;125634;1096;102975;-73
2021/08/07 04:09:16;;;;;;;10.63;4.60;;;;;;;12.02;73.40;98251.36;125646;1094;103011;-73
2021/08/07 04:11:45;;;;;;;10.37;4.87;;;;;;;12.04;73.35;98248.53;125661;1096;103035;-73
2021/08/07 04:14:13;;;;;;;9.73;4.33;;;;;;;12.05;73.29;98260.88;125656;1094;103068;-72
2021/08/07 04:16:44;;;;;;;9.67;4.20;;;;;;;12.06;73.40;98250.09;125601;1096;103047;-74
2021/08/07 04:19:13;;;;;;;8.97;4.20;;;;;;;12.09;73.42;98253.46;125675;1095;103039;-77
2021/08/07 04:21:41;;;;;;;11.30;4.10;;;;;;;12.12;73.46;98254.01;125693;1095;102937;-76
2021/08/07 04:24:13;;;;;;;9.83;4.13;;;;;;;12.16;73.35;98257.25;125692;1096;102938;-75
2021/08/07 04:26:42;;;;;;;8.13;3.80;;;;;;;12.23;73.61;98265.51;125577;1096;103009;-74
2021/08/07 04:29:10;;;;;;;11.07;4.07;;;;;;;12.28;73.41;98256.09;125711;1097;102913;-74
2021/08/07 04:31:38;;;;;;;11.67;4.13;;;;;;;12.35;73.81;98251.05;125694;1097;102940;-76
2021/08/07 04:34:07;;;;;;;8.10;3.80;;;;;;;12.43;73.47;98261.81;125696;1096;103016;-76
2021/08/07 04:36:39;;;;;;;9.00;3.87;;;;;;;12.52;73.60;98257.47;125662;1095;103007;-75
2021/08/07 04:39:08;;;;;;;8.90;3.90;;;;;;;12.60;73.61;98260.26;125714;1096;103087;-75
2021/08/07 04:41:38;;;;;;;9.40;3.93;;;;;;;12.69;73.77;98263.02;125750;1096;103000;-76
2021/08/07 04:44:12;;;;;;;7.05;3.98;;;;;;;12.77;73.68;98265.81;125706;1097;103068;-76
2021/08/07 04:46:41;;;;;;;8.57;4.07;;;;;;;12.86;73.94;98259.61;125732;1097;103030;-75
2021/08/07 04:49:09;;;;;;;8.77;4.10;;;;;;;12.94;73.65;98254.38;125646;1095;102917;-70
2021/08/07 04:51:39;;;;;;;11.77;3.90;;;;;;;13.01;73.84;98257.30;126310;1093;102944;-70
2021/08/07 04:54:11;;;;;;;8.60;3.70;;;;;;;13.09;73.74;98264.55;125690;1093;102915;-73
2021/08/07 04:56:39;;;;;;;8.03;3.90;;;;;;;13.16;74.03;98256.81;125633;1093;102942;-70
2021/08/07 04:59:10;;;;;;;6.43;3.70;;;;;;;13.25;73.74;98259.43;125719;1097;103461;-70
2021/08/07 05:01:39;;;;;;;8.17;3.60;;;;;;;13.33;73.79;98253.33;125579;1095;102987;-71
2021/08/07 05:04:12;;;;;;;8.23;3.87;;;;;;;13.40;73.78;98261.61;125686;1095;102984;-70
2021/08/07 05:06:44;;;;;;;9.03;3.77;;;;;;;13.48;73.89;98251.02;125596;1094;103019;-69
2021/08/07 05:09:13;;;;;;;7.37;3.70;;;;;;;13.58;73.76;98258.14;127663;1096;100818;-69
2021/08/07 05:11:42;;;;;;;9.63;3.60;;;;;;;13.68;73.92;98261.59;126283;1095;103432;-73
2021/08/07 05:14:10;;;;;;;8.60;4.50;;;;;;;13.77;74.08;98259.83;125734;1095;103075;-71
2021/08/07 05:16:40;;;;;;;8.30;3.87;;;;;;;13.83;73.85;98254.73;127638;1095;100676;-72
2021/08/07 05:19:09;;;;;;;6.43;3.50;;;;;;;13.93;73.91;98259.14;127762;1096;101494;-72
2021/08/07 05:21:37;;;;;;;6.87;3.20;;;;;;;14.06;74.06;98262.28;126212;1094;103027;-73
2021/08/07 05:24:06;;;;;;;6.87;3.43;;;;;;;14.16;74.08;98259.52;125720;1093;103011;-74
2021/08/07 05:26:34;;;;;;;8.83;4.63;;;;;;;14.23;74.09;98265.92;125682;1093;103014;-72
2021/08/07 05:29:02;;;;;;;7.03;3.50;;;;;;;14.34;73.91;98266.69;125749;1095;103012;-73
2021/08/07 05:31:31;;;;;;;7.73;3.60;;;;;;;14.44;73.89;98280.81;125702;1095;104460;-73
2021/08/07 05:33:59;;;;;;;7.23;3.70;;;;;;;14.52;73.95;98272.82;125680;1093;103005;-73
2021/08/07 05:36:28;;;;;;;10.83;4.03;;;;;;;14.64;74.01;98272.57;125705;1096;102919;-75
2021/08/07 05:38:56;;;;;;;7.17;3.67;;;;;;;14.71;73.94;98269.13;125562;1096;103013;-74
2021/08/07 05:41:24;;;;;;;7.30;3.70;;;;;;;14.79;74.07;98268.36;125717;1095;103035;-74
2021/08/07 05:43:53;;;;;;;6.37;3.60;;;;;;;14.86;74.04;98274.77;125671;1097;103012;-78
2021/08/07 05:46:21;;;;;;;7.00;3.30;;;;;;;14.93;74.00;98274.11;125638;1096;102945;-74
2021/08/07 05:48:54;;;;;;;6.37;3.53;;;;;;;15.01;73.86;98276.83;125676;1095;102921;-73
2021/08/07 05:51:24;;;;;;;8.83;3.80;;;;;;;15.07;73.94;98281.55;125680;1095;103533;-72
2021/08/07 05:53:53;;;;;;;5.95;3.45;;;;;;;15.14;73.96;98277.24;125725;1096;102919;-75
2021/08/07 05:56:25;;;;;;;9.03;3.63;;;;;;;15.21;73.95;98274.75;125680;1095;103013;-75
2021/08/07 05:58:58;;;;;;;9.80;3.47;;;;;;;15.28;74.03;98269.61;125652;1094;102924;-75
2021/08/07 06:01:27;;;;;;;11.70;4.80;;;;;;;15.38;73.97;98274.83;125712;1095;102716;-75
2021/08/07 06:03:55;;;;;;;9.50;4.20;;;;;;;15.52;74.11;98282.22;125671;1095;102983;-75
2021/08/07 06:06:23;;;;;;;8.43;4.30;;;;;;;15.65;74.15;98283.61;125563;1095;103529;-73
2021/08/07 06:08:52;;;;;;;9.35;3.95;;;;;;;15.77;74.05;98280.45;125727;1095;102948;-73
2021/08/07 06:11:20;;;;;;;8.33;3.60;;;;;;;15.90;74.04;98271.95;125679;1094;102939;-76
2021/08/07 06:13:49;;;;;;;12.47;4.00;;;;;;;16.02;74.14;98283.22;125673;1094;102916;-79
2021/08/07 06:16:17;;;;;;;11.20;3.43;;;;;;;16.16;74.13;98294.27;125663;1096;103065;-72
2021/08/07 06:18:49;;;;;;;8.60;3.30;;;;;;;16.25;73.86;98298.64;125696;1097;102940;-76
2021/08/07 06:21:18;;;;;;;6.43;3.17;;;;;;;16.35;73.93;98287.73;125725;1097;103035;-83
2021/08/07 06:23:46;;;;;;;9.47;3.53;;;;;;;16.43;73.69;98292.28;125648;1095;103492;-76
2021/08/07 06:26:19;;;;;;;10.27;4.03;;;;;;;16.56;73.84;98289.91;125699;1096;102997;-72
2021/08/07 06:28:48;;;;;;;8.70;3.93;;;;;;;16.64;73.83;98295.27;125645;1096;102998;-72
2021/08/07 06:31:16;;;;;;;9.67;4.07;;;;;;;16.72;73.78;98294.41;125735;1097;102946;-72
2021/08/07 06:33:45;;;;;;;10.77;4.90;;;;;;;16.79;73.70;98290.04;125693;1096;102939;-72
2021/08/07 06:36:17;;;;;;;16.10;5.60;;;;;;;16.85;73.24;98291.23;125689;1095;103026;-78
2021/08/07 06:38:45;;;;;;;13.50;4.83;;;;;;;16.95;73.90;98289.16;125822;1095;102985;-70
2021/08/07 06:41:13;;;;;;;11.53;4.57;;;;;;;17.04;73.43;98281.12;125665;1093;103057;-73
2021/08/07 06:43:42;;;;;;;11.33;4.77;;;;;;;17.17;73.59;98278.73;125700;1095;102929;-69
2021/08/07 06:46:11;;;;;;;11.57;5.03;;;;;;;17.31;73.76;98279.85;126285;1095;103023;-71
2021/08/07 06:48:39;;;;;;;8.03;4.27;;;;;;;17.42;73.55;98286.69;125647;1095;103414;-68
2021/08/07 06:51:11;;;;;;;9.03;4.40;;;;;;;17.51;73.27;98285.64;125686;1097;102916;-71
2021/08/07 06:53:40;;;;;;;11.27;4.67;;;;;;;17.64;73.50;98286.93;125723;1096;102916;-71
2021/08/07 06:56:12;;;;;;;7.73;3.97;;;;;;;17.75;73.26;98296.44;125708;1097;102942;-69
2021/08/07 06:58:40;;;;;;;9.70;4.20;;;;;;;17.83;73.32;98293.72;125683;1095;103012;-67
2021/08/07 07:01:09;;;;;;;9.30;3.90;;;;;;;17.94;73.35;98293.28;125652;1095;103034;-70
2021/08/07 07:03:38;;;;;;;7.70;3.50;;;;;;;18.11;73.32;98295.91;125680;1096;103015;-68
2021/08/07 07:06:10;;;;;;;6.63;3.60;;;;;;;18.26;73.43;98296.81;125636;1093;103018;-68
2021/08/07 07:08:38;;;;;;;5.33;3.40;;;;;;;18.38;72.92;98297.22;125683;1093;103053;-68
2021/08/07 07:11:06;;;;;;;7.00;3.43;;;;;;;18.53;73.02;98294.56;125688;1093;102926;-70
2021/08/07 07:13:35;;;;;;;8.83;3.73;;;;;;;18.80;72.90;98291.45;125638;1095;103518;-74
2021/08/07 07:16:04;;;;;;;6.77;3.60;;;;;;;19.32;72.80;98292.42;125742;1095;103392;-68
2021/08/07 07:18:36;;;;;;;3.40;2.88;;;;;;;20.00;73.05;98289.50;125641;1095;102942;-67
2021/08/07 07:21:09;;;;;;;6.30;3.03;;;;;;;20.74;72.68;98292.86;125701;1093;102936;-67
2021/08/07 07:23:38;;;;;;;4.97;2.90;;;;;;;21.54;72.42;98300.64;125680;1096;102915;-68
2021/08/07 07:26:06;;;;;;;7.07;3.20;;;;;;;22.42;71.72;98298.98;125560;1093;103054;-67
2021/08/07 07:28:34;;;;;;;6.70;2.63;;;;;;;23.57;72.08;98299.72;125612;1093;103418;-68
2021/08/07 07:31:05;;;;;;;5.30;2.50;;;;;;;24.88;70.98;98298.48;125698;1091;102980;-69
2021/08/07 07:33:33;;;;;;;6.10;2.70;;;;;;;25.96;70.35;98310.88;125668;1095;102970;-68
2021/08/07 07:36:04;;;;;;;8.77;3.20;;;;;;;26.80;69.92;98307.32;125693;1096;103010;-68
2021/08/07 07:38:32;;;;;;;3.90;2.83;;;;;;;27.52;69.67;98301.84;125594;1095;103042;-69
2021/08/07 07:41:02;;;;;;;5.00;2.77;;;;;;;28.13;68.98;98299.52;125663;1094;102916;-67
2021/08/07 07:43:31;;;;;;;3.93;2.60;;;;;;;28.77;68.97;98298.41;125634;1096;102912;-67
2021/08/07 07:46:05;;;;;;;;;;;;;;;29.60;67.17;98299.58;125682;1095;103065;-69
2021/08/07 07:48:36;;;;;;;4.43;2.47;;;;;;;30.32;68.10;98301.48;125627;1096;102940;-67
2021/08/07 07:51:04;;;;;;;3.37;2.70;;;;;;;30.95;67.93;98307.23;125580;1095;103074;-69
2021/08/07 07:53:33;;;;;;;5.27;2.43;;;;;;;31.62;67.92;98304.02;125618;1094;102916;-66
2021/08/07 07:56:05;;;;;;;3.40;2.30;;;;;;;32.19;67.00;98312.47;125707;1095;103019;-66
2021/08/07 07:58:33;;;;;;;5.20;2.50;;;;;;;32.80;67.39;98308.13;125639;1095;103072;-70
2021/08/07 08:01:04;;;;;;;4.33;2.67;;;;;;;33.30;66.31;98301.98;125712;1095;103014;-71
2021/08/07 08:03:34;;;;;;;4.37;2.30;;;;;;;33.49;66.02;98302.22;125674;1095;103007;-69
2021/08/07 08:06:06;;;;;;;;;;;;;;;33.62;63.86;98309.89;125711;1095;103087;-72
2021/08/07 08:08:38;;;;;;;9.13;2.70;;;;;;;33.35;66.45;98311.08;125677;1093;102920;-74
2021/08/07 08:11:07;;;;;;;4.60;2.60;;;;;;;33.09;66.12;98313.88;125606;1093;102943;-75
2021/08/07 08:13:37;;;;;;;7.37;2.53;;;;;;;34.02;66.04;98312.77;125692;1093;103426;-74
2021/08/07 08:16:06;;;;;;;4.70;2.27;;;;;;;34.68;64.55;98315.33;125670;1094;103095;-75
2021/08/07 08:18:35;;;;;;;3.03;2.33;;;;;;;35.29;63.39;98321.41;125703;1093;102994;-74
2021/08/07 08:21:03;;;;;;;6.43;2.80;;;;;;;35.50;62.42;98315.66;125604;1094;102974;-75
2021/08/07 08:23:32;;;;;;;4.13;2.53;;;;;;;35.56;62.55;98317.25;126268;1094;102940;-91
2021/08/07 08:26:00;;;;;;;4.97;2.47;;;;;;;35.92;62.39;98319.55;126217;1095;103007;-87
2021/08/07 08:28:30;;;;;;;6.53;2.63;;;;;;;36.55;62.47;98319.50;126116;1093;103001;-84
2021/08/07 08:30:59;;;;;;;41.13;3.97;;;;;;;36.80;61.10;98319.09;127681;1095;100754;-84
2021/08/07 08:33:27;;;;;;;5.73;2.37;;;;;;;36.73;60.18;98320.59;127531;1093;102916;-84
2021/08/07 08:35:56;;;;;;;5.00;2.53;;;;;;;36.77;60.43;98324.39;127544;1095;100811;-80
2021/08/07 08:38:24;;;;;;;5.90;2.83;;;;;;;37.12;59.23;98335.19;125760;1093;102926;-79
2021/08/07 08:40:59;;;;;;;7.00;2.33;;;;;;;36.50;58.45;98328.73;125836;1093;103089;-81
2021/08/07 08:43:32;;;;;;;4.23;2.40;;;;;;;35.94;58.24;98336.67;125599;1096;103309;-84
2021/08/07 08:46:02;;;;;;;2.50;2.30;;;;;;;35.37;57.02;98333.75;125914;1095;102945;-84
2021/08/07 08:48:36;;;;;;;3.93;2.60;;;;;;;34.64;56.97;98344.66;126028;1095;102919;-84
2021/08/07 08:51:08;;;;;;;4.10;2.50;;;;;;;34.31;56.29;98345.14;126685;1096;103067;-85
2021/08/07 08:53:41;;;;;;;5.87;2.63;;;;;;;33.49;55.98;98341.65;125607;1093;103012;-82
2021/08/07 08:56:10;;;;;;;2.50;2.17;;;;;;;32.84;55.49;98352.48;125553;1094;103066;-83
2021/08/07 08:58:38;;;;;;;3.03;2.37;;;;;;;32.10;55.15;98363.60;125399;1096;103581;-80
2021/08/07 09:01:08;;;;;;;2.93;2.23;;;;;;;31.40;55.30;98357.23;125570;1094;102990;-86
2021/08/07 09:03:37;;;;;;;6.63;2.97;;;;;;;30.49;54.87;98364.47;126000;1096;103120;-82
2021/08/07 09:06:11;;;;;;;3.30;2.73;;;;;;;29.98;54.67;98365.57;125716;1095;103074;-83
2021/08/07 09:09:01;;;;;;;7.10;2.70;;;;;;;29.59;54.44;98363.68;126019;1094;103013;-83
2021/08/07 09:11:31;;;;;;;3.43;2.17;;;;;;;29.19;53.51;98361.99;125766;1096;103107;-84
2021/08/07 09:14:25;;;;;;;3.47;2.57;;;;;;;28.68;53.77;98371.04;125827;1096;103503;-84
2021/08/07 09:16:59;;;;;;;4.07;2.77;;;;;;;28.21;53.82;98372.94;125745;1095;102922;-84
2021/08/07 09:19:40;;;;;;;3.70;2.50;;;;;;;28.42;53.10;98381.51;125684;1096;102925;-85
2021/08/07 09:22:17;;;;;;;6.63;3.13;;;;;;;28.47;53.03;98383.53;125754;1096;102943;-84
2021/08/07 09:25:00;;;;;;;6.67;2.77;;;;;;;27.96;53.27;98392.36;125673;1096;102919;-82
2021/08/07 09:27:32;;;;;;;5.97;3.03;;;;;;;27.51;52.53;98390.31;125743;1095;102945;-85
2021/08/07 09:30:25;;;;;;;3.60;2.73;;;;;;;27.12;52.53;98391.59;125743;1096;103001;-85
2021/08/07 09:32:55;;;;;;;5.65;3.20;;;;;;;26.86;52.42;98398.33;125691;1096;102921;-82
2021/08/07 09:35:29;;;;;;;8.33;2.90;;;;;;;26.67;52.68;98400.27;125681;1096;103016;-83
2021/08/07 09:38:18;;;;;;;5.90;2.97;;;;;;;26.62;52.59;98400.13;125700;1095;103071;-74
2021/08/07 09:40:49;;;;;;;6.73;3.17;;;;;;;26.44;52.51;98399.96;125676;1096;103060;-78
2021/08/07 09:43:40;;;;;;;3.93;3.10;;;;;;;26.17;52.27;98395.95;125693;1096;103125;-78
2021/08/07 09:46:13;;;;;;;3.77;2.80;;;;;;;26.25;52.06;98390.19;125663;1094;103000;-81
2021/08/07 09:48:48;;;;;;;8.03;2.87;;;;;;;26.17;51.75;98393.23;125696;1096;103053;-80
2021/08/07 09:51:19;;;;;;;7.45;2.90;;;;;;;25.86;51.88;98388.55;125659;1095;102951;-82
2021/08/07 09:54:05;;;;;;;9.90;2.93;;;;;;;26.01;51.72;98399.05;125663;1095;102915;-80
2021/08/07 09:56:51;;;;;;;7.50;3.50;;;;;;;26.16;51.82;98397.83;125645;1095;103173;-78
2021/08/07 09:59:33;;;;;;;4.23;2.87;;;;;;;26.51;51.52;98396.31;125658;1096;102919;-77
2021/08/07 10:02:31;;;;;;;4.35;2.98;;;;;;;26.84;51.72;98389.54;125708;1096;102913;-79
2021/08/07 10:05:01;;;;;;;7.67;3.40;;;;;;;27.00;51.78;98386.13;125718;1096;103403;-74
2021/08/07 10:07:30;;;;;;;4.13;3.00;;;;;;;27.10;51.46;98395.64;125634;1095;103021;-78
2021/08/07 10:09:58;;;;;;;4.03;2.80;;;;;;;27.04;51.41;98397.40;125676;1095;102994;-78
2021/08/07 10:12:26;;;;;;;5.83;2.83;;;;;;;26.98;51.39;98409.25;125499;1095;102950;-77
2021/08/07 10:14:55;;;;;;;6.17;2.90;;;;;;;26.91;51.63;98406.64;125670;1096;103068;-78
2021/08/07 10:17:27;;;;;;;6.40;2.90;;;;;;;26.86;51.34;98399.17;125656;1094;102912;-79
2021/08/07 10:19:59;;;;;;;3.73;2.53;;;;;;;26.86;51.62;98393.72;125673;1096;102950;-75
2021/08/07 10:22:27;;;;;;;6.37;2.80;;;;;;;26.85;51.40;98399.39;125675;1095;102997;-73
2021/08/07 10:25:02;;;;;;;4.10;2.50;;;;;;;26.83;51.29;98398.79;125619;1095;103083;-73
2021/08/07 10:27:34;;;;;;;4.73;3.00;;;;;;;26.84;51.55;98393.12;125693;1095;103109;-74
2021/08/07 10:30:06;;;;;;;;;;;;;;;26.80;51.30;98396.50;125683;1097;102941;-76
2021/08/07 10:32:40;;;;;;;6.43;3.03;;;;;;;26.68;51.10;98391.02;125691;1096;102940;-75
2021/08/07 10:35:13;;;;;;;5.50;2.70;;;;;;;26.63;51.13;98386.28;125685;1094;102945;-75
2021/08/07 10:37:41;;;;;;;3.10;2.57;;;;;;;26.56;50.97;98389.09;125648;1095;102939;-76
2021/08/07 10:40:12;;;;;;;6.77;3.23;;;;;;;26.43;50.92;98394.76;125702;1095;102940;-76
2021/08/07 10:42:44;;;;;;;4.80;2.70;;;;;;;26.35;50.84;98389.63;125631;1096;102911;-75
2021/08/07 10:45:15;;;;;;;3.25;2.53;;;;;;;26.30;50.83;98393.88;125720;1096;102942;-81
2021/08/07 10:47:47;;;;;;;4.27;2.80;;;;;;;26.11;50.96;98400.38;125704;1097;102990;-80
2021/08/07 10:50:25;;;;;;;5.50;3.07;;;;;;;25.93;50.59;98393.91;125641;1096;103068;-78
2021/08/07 10:52:57;;;;;;;3.10;2.53;;;;;;;25.91;50.80;98392.45;125682;1094;103126;-79
2021/08/07 10:55:47;;;;;;;4.13;2.60;;;;;;;25.87;50.61;98392.09;125659;1097;103010;-79
2021/08/07 10:58:46;;;;;;;5.97;3.00;;;;;;;25.84;50.87;98395.27;125749;1096;102916;-81
2021/08/07 11:01:21;;;;;;;3.93;2.63;;;;;;;25.83;50.83;98390.88;125638;1095;102994;-80
2021/08/07 11:04:00;;;;;;;4.25;2.55;;;;;;;25.88;50.94;98392.94;125896;1094;102945;-82
2021/08/07 11:06:38;;;;;;;5.70;3.23;;;;;;;25.91;50.91;98387.85;125651;1095;103013;-83
2021/08/07 11:09:41;;;;;;;4.10;2.50;;;;;;;25.89;50.94;98380.95;125675;1096;103100;-74
2021/08/07 11:12:12;;;;;;;3.25;2.33;;;;;;;25.98;50.85;98376.86;125637;1093;102943;-76
2021/08/07 11:14:44;;;;;;;11.60;3.57;;;;;;;25.97;50.81;98386.09;125632;1093;103016;-73
2021/08/07 11:17:12;;;;;;;4.33;2.60;;;;;;;25.96;50.66;98395.33;125649;1096;102945;-71
2021/08/07 11:19:43;;;;;;;2.90;2.43;;;;;;;25.84;50.45;98392.55;125639;1094;103008;-71
2021/08/07 11:22:12;;;;;;;4.10;2.73;;;;;;;25.72;50.39;98392.48;125705;1093;103081;-71
2021/08/07 11:24:43;;;;;;;4.13;2.37;;;;;;;25.68;50.51;98389.36;125664;1093;103090;-72
2021/08/07 11:27:42;;;;;;;;;;;;;;;25.60;50.38;98386.96;125671;1095;102941;-71
2021/08/07 11:30:36;;;;;;;14.13;4.67;;;;;;;25.59;50.63;98379.00;125735;1093;102984;-69
2021/08/07 11:33:09;;;;;;;7.67;2.90;;;;;;;25.68;50.57;98383.91;125733;1095;102956;-72
2021/08/07 11:35:38;;;;;;;6.17;3.20;;;;;;;25.63;50.38;98381.06;125887;1095;102929;-72
2021/08/07 11:38:12;;;;;;;8.90;3.50;;;;;;;25.64;50.60;98376.44;125765;1093;102933;-72